Latest Weather Observations for Ulladulla

IDN60801

Issued at 12:32 pm EST Sunday 19 April 2015 (issued every 30 minutes, with the page automatically refreshed every 10 minutes)

About weather observations | Map of weather stations | Latest weather observations for NSW | Other Formats
Station Details ID: 069138 Name: ULLADULLA AWS Lat: -35.36 Lon: 150.48 Height: 35.7 m
Data from the previous 72 hours. | See also: Recent months at Ulladulla
Date/Time
EST
Temp
°C
App
Temp
°C
Dew
Point
Rel
Hum
%
Delta-T
°C
Wind Press
QNH
hPa
Press
MSL
hPa
Rain
since 9 am
mm
Dir
 
Spd
km/h
Gust
km/h
Spd
kts
Gust
kts
19/12:30pm 16.3 10.0 9.7 65 3.4 S 33 50 18 27 1020.6 1020.6 0.0
19/12:00pm 16.9 10.1 10.7 67 3.3 S 37 50 20 27 1020.5 1020.5 0.0
19/11:30am 16.6 10.0 10.0 65 3.5 S 35 50 19 27 1020.7 1020.7 0.0
19/11:00am 17.0 11.4 11.5 70 3.0 S 32 43 17 23 1020.3 1020.3 0.0
19/10:30am 17.3 11.8 12.4 73 2.7 S 33 46 18 25 1019.8 1019.8 0.0
19/10:00am 17.1 10.3 11.8 71 2.9 S 39 52 21 28 1019.5 1019.5 0.0
19/09:49am 17.5 12.4 13.2 76 2.4 S 32 50 17 27 1019.3 1019.3 0.0
19/09:30am 17.5 12.1 12.8 74 2.6 S 33 46 18 25 1019.3 1019.3 0.0
19/09:00am 17.3 12.2 13.2 77 2.3 S 32 46 17 25 1018.9 1018.9 4.2
19/08:30am 17.2 10.8 13.1 77 2.3 S 39 50 21 27 1018.4 1018.4 4.2
19/08:00am 16.9 11.7 13.4 80 2.0 S 33 48 18 26 1018.1 1018.1 4.2
19/07:30am 17.1 12.2 14.2 83 1.7 S 33 43 18 23 1017.4 1017.3 4.2
19/07:00am 16.8 13.7 14.6 87 1.3 S 24 35 13 19 1017.1 1017.0 4.0
19/06:30am 18.3 13.9 14.2 77 2.4 S 30 37 16 20 1016.2 1016.1 3.0
19/06:00am 18.8 14.7 13.9 73 2.8 S 28 39 15 21 1015.3 1015.2 3.0
19/05:30am 18.7 14.6 13.8 73 2.8 S 28 39 15 21 1014.9 1014.8 3.0
19/05:00am 19.0 16.1 14.1 73 2.8 S 22 32 12 17 1014.5 1014.4 3.0
19/04:30am 19.0 16.9 15.1 78 2.3 S 20 30 11 16 1014.1 1014.0 3.0
19/04:00am 19.6 18.7 16.8 84 1.7 SSW 17 28 9 15 1013.9 1013.8 3.0
19/03:30am 19.4 18.5 13.8 70 3.2 W 11 19 6 10 1013.1 1013.0 3.0
19/03:00am 19.5 18.6 13.7 69 3.3 WNW 11 22 6 12 1012.4 1012.3 3.0
19/02:30am 19.5 17.6 14.1 71 3.1 W 17 28 9 15 1012.3 1012.2 3.0
19/02:00am 19.7 18.2 14.1 70 3.2 WNW 15 28 8 15 1012.5 1012.4 3.0
19/01:30am 20.0 17.7 14.1 69 3.4 WNW 19 33 10 18 1012.3 1012.2 2.8
19/01:00am 19.4 19.6 14.6 74 2.8 WNW 7 15 4 8 1012.5 1012.4 2.8
19/12:30am 19.2 20.1 15.1 77 2.4 N 4 6 2 3 1012.6 1012.5 2.8
19/12:00am 19.7 19.6 14.9 74 2.8 NW 9 17 5 9 1012.2 1012.1 2.8
 
Date/Time
EST
Temp
°C
App
Temp
°C
Dew
Point
Rel
Hum
%
Delta-T
°C
Wind Press
QNH
hPa
Press
MSL
hPa
Rain
since 9 am
mm
Dir
 
Spd
km/h
Gust
km/h
Spd
kts
Gust
kts
18/11:30pm 19.8 20.4 15.2 75 2.7 N 6 9 3 5 1012.2 1012.1 2.8
18/11:00pm 19.9 19.6 15.5 76 2.6 NNW 11 22 6 12 1012.5 1012.4 2.8
18/10:30pm 19.8 20.5 17.9 89 1.2 NNW 11 19 6 10 1013.0 1012.9 2.8
18/10:00pm 20.1 21.6 18.8 92 0.8 NNW 9 15 5 8 1012.9 1012.8 2.8
18/09:30pm 20.3 22.2 18.6 90 1.1 NNW 6 9 3 5 1012.8 1012.7 2.8
18/09:00pm 20.6 21.5 18.4 87 1.4 NNW 11 24 6 13 1012.6 1012.5 2.8
18/08:30pm 20.3 21.8 19.0 92 0.8 N 9 15 5 8 1012.8 1012.7 2.4
18/08:00pm 20.5 22.8 19.8 96 0.4 N 7 11 4 6 1012.4 1012.3 2.2
18/07:30pm 20.4 22.6 19.1 92 0.8 N 6 9 3 5 1012.4 1012.3 2.2
18/07:00pm 20.9 23.3 18.8 88 1.3 N 4 6 2 3 1012.1 1012.0 0.4
18/06:30pm 21.4 23.6 19.5 89 1.2 N 7 9 4 5 1011.6 1011.5 0.0
18/06:00pm 21.7 22.5 19.1 85 1.6 N 13 19 7 10 1011.1 1011.0 0.0
18/05:30pm 21.8 23.4 19.2 85 1.6 N 9 19 5 10 1011.1 1011.0 0.0
18/05:00pm 21.6 23.0 19.5 88 1.3 NNW 11 17 6 9 1011.0 1010.9 0.0
18/04:30pm 21.9 22.9 19.5 86 1.5 NNW 13 20 7 11 1011.2 1011.1 0.0
18/04:00pm 22.6 23.7 19.6 83 1.9 N 13 19 7 10 1011.5 1011.4 0.0
18/03:30pm 23.2 25.2 18.7 76 2.8 NNW 6 11 3 6 1011.5 1011.4 0.0
18/03:00pm 23.9 26.1 18.3 71 3.5 NW 4 7 2 4 1011.5 1011.4 0.0
18/02:30pm 24.9 25.8 16.6 60 5.1 N 7 11 4 6 1011.6 1011.5 0.0
18/02:00pm 24.3 25.5 17.3 65 4.4 N 7 17 4 9 1011.9 1011.8 0.0
18/01:30pm 24.4 25.8 17.9 67 4.1 N 7 13 4 7 1011.9 1011.8 0.0
18/01:00pm 25.4 26.4 16.8 59 5.3 N 7 13 4 7 1012.4 1012.3 0.0
18/12:30pm 26.2 26.3 16.4 54 6.0 N 11 26 6 14 1012.8 1012.7 0.0
18/12:00pm 26.2 25.1 15.3 51 6.6 NNW 15 33 8 18 1013.5 1013.4 0.0
18/11:30am 26.4 24.9 15.4 50 6.7 NNW 17 32 9 17 1013.8 1013.7 0.0
18/11:00am 26.4 24.3 15.1 49 6.8 NNW 20 30 11 16 1013.9 1013.8 0.0
18/10:30am 23.3 23.4 18.4 74 3.1 N 15 22 8 12 1014.1 1014.0 0.0
18/10:00am 23.1 23.6 18.4 75 3.0 NNE 13 24 7 13 1014.5 1014.4 0.0
18/09:30am 23.1 23.6 18.4 75 3.0 NNW 13 30 7 16 1014.7 1014.6 0.0
18/09:00am 22.5 23.7 19.1 81 2.2 N 11 22 6 12 1015.0 1014.9 11.0
18/08:30am 22.1 22.6 19.3 84 1.8 NNE 15 28 8 15 1015.3 1015.2 11.0
18/08:00am 21.5 21.7 18.5 83 1.9 NE 15 22 8 12 1015.3 1015.2 11.0
18/07:30am 21.5 22.3 18.1 81 2.1 NNW 11 19 6 10 1015.0 1014.9 11.0
18/07:00am 21.5 20.7 17.9 80 2.2 NNW 19 26 10 14 1014.4 1014.3 11.0
18/06:30am 21.0 20.3 18.2 84 1.7 N 19 24 10 13 1014.2 1014.1 11.0
18/06:00am 20.8 19.8 17.6 82 2.0 N 19 26 10 14 1014.2 1014.1 11.0
18/05:30am 21.4 20.3 17.4 78 2.5 N 19 32 10 17 1014.1 1014.0 11.0
18/05:00am 21.2 20.2 17.6 80 2.2 N 19 30 10 16 1014.1 1014.0 11.0
18/04:30am 20.2 20.1 18.7 91 0.9 N 17 22 9 12 1014.4 1014.3 11.0
18/04:00am 19.8 19.5 18.3 91 0.9 N 17 24 9 13 1014.4 1014.3 11.0
18/03:30am 19.4 18.9 18.6 95 0.5 N 19 28 10 15 1014.7 1014.6 11.0
18/03:00am 19.4 18.8 18.9 97 0.3 N 20 28 11 15 1014.7 1014.6 11.0
18/02:30am 19.4 18.9 18.7 96 0.4 N 19 24 10 13 1015.4 1015.3 11.0
18/02:00am 19.3 19.3 19.0 98 0.2 N 17 22 9 12 1016.1 1016.0 11.0
18/01:30am 19.3 19.0 19.1 99 0.1 N 19 28 10 15 1016.7 1016.6 11.0
18/01:00am 19.2 18.8 19.0 99 0.1 N 19 24 10 13 1017.2 1017.1 11.0
18/12:30am 19.2 18.9 19.2 100 0.0 N 19 26 10 14 1017.6 1017.5 11.0
18/12:00am 19.1 18.7 18.9 99 0.1 N 19 26 10 14 1018.1 1018.1 11.0
 
Date/Time
EST
Temp
°C
App
Temp
°C
Dew
Point
Rel
Hum
%
Delta-T
°C
Wind Press
QNH
hPa
Press
MSL
hPa
Rain
since 9 am
mm
Dir
 
Spd
km/h
Gust
km/h
Spd
kts
Gust
kts
17/11:30pm 19.2 19.2 19.0 99 0.1 N 17 24 9 13 1018.6 1018.6 11.0
17/11:00pm 19.3 19.0 19.1 99 0.1 N 19 26 10 14 1018.8 1018.8 11.0
17/10:30pm 19.3 19.0 19.1 99 0.1 N 19 28 10 15 1019.2 1019.2 11.0
17/10:00pm 19.3 19.5 19.3 100 0.0 N 17 26 9 14 1019.6 1019.6 11.0
17/09:30pm 19.3 20.6 19.3 100 0.0 N 11 20 6 11 1019.7 1019.7 11.0
17/09:00pm 19.3 21.0 19.3 100 0.0 N 9 17 5 9 1019.8 1019.8 11.0
17/08:30pm 19.2 20.7 19.0 99 0.1 N 9 19 5 10 1020.2 1020.2 11.0
17/08:00pm 19.3 19.4 19.1 99 0.1 N 17 26 9 14 1020.3 1020.3 11.0
17/07:30pm 19.3 19.1 19.3 100 0.0 N 19 28 10 15 1019.9 1019.9 11.0
17/07:00pm 19.3 19.1 19.3 100 0.0 N 19 28 10 15 1020.0 1020.0 11.0
17/06:30pm 19.4 20.4 19.4 100 0.0 N 13 20 7 11 1019.8 1019.8 11.0
17/06:00pm 19.3 19.5 19.3 100 0.0 N 17 24 9 13 1019.8 1019.8 11.0
17/05:30pm 19.4 20.0 19.4 100 0.0 N 15 22 8 12 1019.8 1019.8 11.0
17/05:00pm 19.1 21.1 19.1 100 0.0 N 7 13 4 7 1019.7 1019.7 10.8
17/04:30pm 19.0 20.5 19.0 100 0.0 N 9 13 5 7 1020.0 1020.0 10.8
17/04:00pm 18.9 20.8 18.9 100 0.0 N 7 9 4 5 1020.6 1020.6 10.6
17/03:30pm 18.8 20.8 18.8 100 0.0 N 6 11 3 6 1020.6 1020.6 10.4
17/03:00pm 18.7 20.5 18.7 100 0.0 N 7 9 4 5 1021.0 1021.0 10.2
17/02:30pm 18.7 20.5 18.7 100 0.0 N 7 11 4 6 1021.1 1021.1 10.2
17/02:00pm 18.5 20.2 18.5 100 0.0 N 7 11 4 6 1021.4 1021.4 10.0
17/01:30pm 18.4 20.2 18.4 100 0.0 N 6 9 3 5 1021.7 1021.7 9.8
17/01:00pm 18.3 20.5 18.3 100 0.0 N 4 6 2 3 1022.2 1022.2 9.4
17/12:30pm 18.4 20.6 18.4 100 0.0 N 4 7 2 4 1022.6 1022.6 8.2
17/12:00pm 18.5 20.2 18.5 100 0.0 NE 7 13 4 7 1023.4 1023.4 6.8
17/11:30am 18.1 19.6 18.1 100 0.0 NE 7 11 4 6 1023.9 1023.9 6.2
17/11:00am 18.0 20.1 18.0 100 0.0 NE 4 6 2 3 1024.5 1024.5 4.6
17/10:30am 18.1 20.2 18.1 100 0.0 ENE 4 6 2 3 1024.6 1024.6 3.6
17/10:00am 18.0 20.3 17.8 99 0.1 ENE 2 6 1 3 1024.9 1024.9 2.0
17/09:30am 18.0 19.6 17.8 99 0.1 E 6 9 3 5 1025.0 1025.0 1.2
17/09:00am 17.9 19.8 17.6 98 0.2 ESE 4 7 2 4 1025.2 1025.2 7.6
17/08:30am 17.8 19.6 17.5 98 0.2 SW 4 6 2 3 1025.1 1025.1 7.2
17/08:00am 17.7 19.9 17.4 98 0.2 WSW 2 4 1 2 1024.9 1024.9 6.8
17/07:30am 17.7 19.5 17.4 98 0.2 SW 4 7 2 4 1024.7 1024.7 6.2
17/07:00am 17.7 19.1 17.4 98 0.2 WSW 6 9 3 5 1024.5 1024.5 5.8
17/06:30am 17.8 19.9 17.3 97 0.3 WSW 2 4 1 2 1024.0 1024.0 5.6
17/06:00am 17.9 20.1 17.4 97 0.3 WNW 2 6 1 3 1024.3 1024.3 5.0
17/05:30am 17.9 19.6 17.1 95 0.5 WNW 4 6 2 3 1023.9 1023.9 4.4
17/05:00am 18.0 20.4 17.0 94 0.6 CALM 0 0 0 0 1023.7 1023.7 3.6
17/04:30am 18.1 20.6 17.3 95 0.5 CALM 0 0 0 0 1023.5 1023.5 3.4
17/04:00am 17.9 20.3 17.1 95 0.5 CALM 0 4 0 2 1023.4 1023.4 3.4
17/03:30am 17.9 20.0 17.1 95 0.5 ESE 2 6 1 3 1023.3 1023.3 3.4
17/03:00am 18.0 20.6 17.5 97 0.3 CALM 0 2 0 1 1023.7 1023.7 3.2
17/02:30am 18.0 19.8 17.4 96 0.4 W 4 7 2 4 1024.1 1024.1 3.0
17/02:00am 18.2 20.5 17.6 96 0.4 WSW 2 6 1 3 1024.3 1024.3 2.6
17/01:30am 18.1 20.2 17.3 95 0.5 SSE 2 4 1 2 1024.5 1024.5 2.6
17/01:00am 18.2 20.0 17.4 95 0.5 SSE 4 7 2 4 1024.8 1024.8 2.4
17/12:30am 18.3 20.1 17.3 94 0.6 W 4 6 2 3 1024.8 1024.8 2.0
17/12:00am 18.5 20.0 17.5 94 0.6 NW 6 7 3 4 1024.6 1024.6 1.6
 
Date/Time
EST
Temp
°C
App
Temp
°C
Dew
Point
Rel
Hum
%
Delta-T
°C
Wind Press
QNH
hPa
Press
MSL
hPa
Rain
since 9 am
mm
Dir
 
Spd
km/h
Gust
km/h
Spd
kts
Gust
kts
16/11:30pm 18.6 20.0 16.4 87 1.3 SE 4 7 2 4 1024.7 1024.7 1.6
16/11:00pm 18.6 20.1 16.6 88 1.2 ESE 4 6 2 3 1024.8 1024.8 1.6
16/10:30pm 18.6 19.8 16.8 89 1.1 SSE 6 9 3 5 1024.8 1024.8 1.4
16/10:00pm 19.1 19.2 16.5 85 1.6 SSE 11 15 6 8 1024.9 1024.9 0.0
16/09:30pm 19.8 20.2 16.3 80 2.1 SE 9 15 5 8 1024.8 1024.8 0.0
16/09:00pm 19.9 19.9 16.2 79 2.2 SSE 11 17 6 9 1024.4 1024.4 0.0
16/08:30pm 20.0 20.2 15.8 77 2.5 SSE 9 17 5 9 1024.2 1024.2 0.0
16/08:00pm 19.9 20.1 15.7 77 2.5 SSE 9 15 5 8 1023.9 1023.9 0.0
16/07:30pm 20.1 20.1 16.3 79 2.3 SSE 11 17 6 9 1023.6 1023.6 0.0
16/07:00pm 20.0 19.9 16.0 78 2.4 SSE 11 17 6 9 1023.5 1023.5 0.0
16/06:30pm 20.0 19.5 16.0 78 2.4 SSE 13 19 7 10 1023.3 1023.3 0.0
16/06:00pm 20.1 20.1 16.3 79 2.3 SSE 11 17 6 9 1023.1 1023.1 0.0
16/05:30pm 20.1 19.8 16.5 80 2.2 SSE 13 20 7 11 1022.6 1022.6 0.0
16/05:00pm 20.2 19.7 16.8 81 2.1 SSE 15 22 8 12 1022.3 1022.3 0.0
16/04:30pm 20.3 20.6 16.9 81 2.1 SSE 11 19 6 10 1021.9 1021.9 0.0
16/04:00pm 20.4 20.2 16.8 80 2.2 SSE 13 20 7 11 1021.6 1021.6 0.0
16/03:30pm 20.7 20.2 16.9 79 2.3 S 15 22 8 12 1021.6 1021.6 0.0
16/03:00pm 21.3 21.0 17.3 78 2.4 SSE 15 20 8 11 1021.5 1021.5 0.0
16/02:30pm 20.7 20.2 16.9 79 2.3 S 15 20 8 11 1021.3 1021.3 0.0
16/02:00pm 20.6 20.1 16.8 79 2.3 S 15 22 8 12 1021.2 1021.2 0.0
16/01:30pm 20.7 19.8 16.9 79 2.3 S 17 24 9 13 1021.1 1021.1 0.0
16/01:00pm 21.0 19.9 17.4 80 2.2 S 19 24 10 13 1020.9 1020.9 0.0

Other Formats:

Comma delimited format used in spreadsheet applications
http://www.bom.gov.au/fwo/IDN60801/IDN60801.94938.axf

JavaScript Object Notation format (JSON) in row-major order
http://www.bom.gov.au/fwo/IDN60801/IDN60801.94938.json